createdAt,value
2022-10-18T00:01:17.857Z,6.65
2022-10-18T00:06:22.081Z,7.57
2022-10-18T00:11:25.083Z,8.18
2022-10-18T00:16:28.010Z,7.82
2022-10-18T00:21:32.184Z,7.35
2022-10-18T00:26:35.327Z,8.55
2022-10-18T00:31:39.165Z,8.98
2022-10-18T00:36:44.652Z,8.18
2022-10-18T00:41:47.898Z,9.68
2022-10-18T00:46:51.270Z,9.98
2022-10-18T00:51:59.673Z,8.88
2022-10-18T00:57:03.217Z,9.50
2022-10-18T01:02:07.606Z,8.10
2022-10-18T01:07:21.586Z,7.28
2022-10-18T01:12:33.966Z,7.35
2022-10-18T01:17:46.757Z,9.93
2022-10-18T01:22:57.210Z,9.15
2022-10-18T01:28:12.412Z,9.88
2022-10-18T01:38:55.607Z,9.02
2022-10-18T01:44:02.193Z,7.95
2022-10-18T01:49:06.667Z,7.60
2022-10-18T01:54:11.271Z,9.43
2022-10-18T01:59:28.151Z,14.52
2022-10-18T02:04:37.790Z,14.10
2022-10-18T02:09:46.189Z,13.65
2022-10-18T02:14:50.638Z,13.13
2022-10-18T02:19:56.700Z,11.70
2022-10-18T02:25:03.748Z,10.10
2022-10-18T02:30:07.905Z,11.38
2022-10-18T02:35:21.226Z,10.65
2022-10-18T02:40:26.232Z,9.10
2022-10-18T02:45:29.160Z,9.43
2022-10-18T02:50:33.226Z,9.85
2022-10-18T02:55:35.919Z,10.25
2022-10-18T03:00:38.644Z,9.65
2022-10-18T03:05:42.846Z,10.07
2022-10-18T03:10:45.581Z,10.35
2022-10-18T03:15:48.759Z,9.75
2022-10-18T03:20:52.932Z,10.65
2022-10-18T03:25:55.687Z,10.15
2022-10-18T03:31:02.509Z,10.05
2022-10-18T03:36:07.061Z,9.30
2022-10-18T03:41:09.798Z,10.60
2022-10-18T03:46:12.605Z,9.35
2022-10-18T03:51:16.698Z,8.55
2022-10-18T03:56:20.307Z,8.27
2022-10-18T04:01:23.345Z,7.25
2022-10-18T04:06:28.462Z,6.95
2022-10-18T04:11:31.175Z,6.90
2022-10-18T04:16:33.873Z,8.57
2022-10-18T04:21:38.321Z,7.97
2022-10-18T04:26:41.013Z,9.00
2022-10-18T04:31:43.859Z,8.52
2022-10-18T04:36:52.958Z,8.68
2022-10-18T04:41:55.668Z,8.52
2022-10-18T04:46:58.471Z,8.63
2022-10-18T04:52:03.266Z,8.13
2022-10-18T04:57:06.096Z,8.45
2022-10-18T05:02:08.771Z,7.82
2022-10-18T05:07:13.042Z,7.63
2022-10-18T05:12:16.039Z,8.27
2022-10-18T05:17:18.818Z,8.10
2022-10-18T05:22:22.984Z,9.13
2022-10-18T05:27:25.782Z,8.88
2022-10-18T05:32:29.507Z,9.60
2022-10-18T05:37:34.035Z,9.10
2022-10-18T05:42:36.957Z,8.88
2022-10-18T05:47:39.736Z,8.05
2022-10-18T05:52:43.787Z,7.38
2022-10-18T05:57:50.385Z,6.95
2022-10-18T06:02:59.358Z,7.40
2022-10-18T06:08:07.995Z,8.25
2022-10-18T06:13:13.053Z,7.93
2022-10-18T06:18:15.848Z,8.32
2022-10-18T06:23:20.009Z,8.95
2022-10-18T06:28:22.785Z,7.20
2022-10-18T06:38:57.455Z,7.80
2022-10-18T06:44:07.090Z,8.95
2022-10-18T06:49:12.069Z,7.95
2022-10-18T06:54:18.977Z,7.40
2022-10-18T06:59:22.909Z,8.85
2022-10-18T07:04:29.753Z,6.43
2022-10-18T07:09:38.385Z,7.53
2022-10-18T07:14:41.077Z,7.40
2022-10-18T07:25:12.432Z,7.65
2022-10-18T07:30:15.217Z,11.50
2022-10-18T07:35:18.836Z,6.38
2022-10-18T07:40:26.140Z,6.47
2022-10-18T07:45:28.976Z,5.07
2022-10-18T07:50:31.720Z,5.63
2022-10-18T07:55:36.527Z,6.57
2022-10-18T08:00:41.004Z,6.25
2022-10-18T08:05:43.831Z,6.15
2022-10-18T08:10:47.973Z,7.97
2022-10-18T08:15:50.718Z,8.80
2022-10-18T08:20:53.589Z,8.98
2022-10-18T08:25:57.959Z,7.03
2022-10-18T08:31:03.690Z,5.07
2022-10-18T08:36:08.812Z,4.65
2022-10-18T08:41:52.787Z,5.13
2022-10-18T08:47:00.293Z,3.97
2022-10-18T08:52:05.548Z,4.10
2022-10-18T08:57:16.591Z,5.55
2022-10-18T09:02:36.499Z,4.20
2022-10-18T09:07:56.263Z,9.70
2022-10-18T09:13:16.558Z,6.88
2022-10-18T09:18:35.919Z,4.70
2022-10-18T09:23:47.341Z,3.00
2022-10-18T09:29:06.677Z,2.65
2022-10-18T09:34:14.074Z,2.10
2022-10-18T09:39:22.583Z,2.60
2022-10-18T09:44:31.291Z,3.30
2022-10-18T09:49:38.392Z,2.53
2022-10-18T09:54:45.931Z,3.03
2022-10-18T09:59:51.618Z,3.10
2022-10-18T10:04:55.690Z,2.00
2022-10-18T10:10:00.696Z,2.15
2022-10-18T10:15:23.316Z,1.23
2022-10-18T10:20:34.062Z,1.00
2022-10-18T10:25:39.122Z,1.10
2022-10-18T10:30:43.523Z,0.80
2022-10-18T10:35:53.453Z,1.00
2022-10-18T10:40:56.956Z,0.93
2022-10-18T10:46:04.663Z,0.90
2022-10-18T10:51:09.845Z,1.25
2022-10-18T10:56:21.700Z,1.05
2022-10-18T11:01:30.174Z,1.25
2022-10-18T11:06:40.475Z,0.80
2022-10-18T11:11:49.878Z,1.30
2022-10-18T11:17:07.711Z,1.30
2022-10-18T11:22:17.026Z,1.27
2022-10-18T11:27:25.992Z,1.13
2022-10-18T11:32:40.404Z,1.17
2022-10-18T11:38:02.094Z,1.20
2022-10-18T11:43:14.920Z,1.20
2022-10-18T11:48:44.653Z,1.63
2022-10-18T11:54:04.731Z,1.70
2022-10-18T11:59:24.589Z,1.30
2022-10-18T12:10:04.079Z,1.05
2022-10-18T12:15:19.348Z,0.93
2022-10-18T12:20:28.462Z,1.05
2022-10-18T12:25:35.756Z,1.10
2022-10-18T12:30:43.374Z,0.70
2022-10-18T12:36:02.165Z,0.90
2022-10-18T12:41:06.662Z,0.90
2022-10-18T12:46:14.296Z,1.20
2022-10-18T12:51:20.644Z,1.10
